Time;durP1;ratioP1;P1;durP2;ratioP2;P2;SDS_P1;SDS_P2;PMS_P1;PMS_P2;Temp;Humidity;BMP_temperature;BMP_pressure;BME280_temperature;BME280_humidity;BME280_pressure;Samples;Min_cycle;Max_cycle;Signal;HPM_P1;HPM_P2
2023/11/17 00:00:03;;;;;;;20.23;13.63;;;;;;;7.42;59.09;95022.81;4869196;29;20163;-72
2023/11/17 00:02:29;;;;;;;26.38;13.45;;;;;;;7.43;59.18;95016.16;4872754;29;20032;-72
2023/11/17 00:04:54;;;;;;;22.05;12.95;;;;;;;7.43;59.27;94999.75;4857009;29;20032;-72
2023/11/17 00:07:19;;;;;;;23.55;13.68;;;;;;;7.41;59.32;94997.44;4849006;29;20037;-72
2023/11/17 00:09:45;;;;;;;24.48;14.35;;;;;;;7.43;59.56;94999.75;4857125;29;20037;-73
2023/11/17 00:12:10;;;;;;;23.20;13.70;;;;;;;7.38;59.38;94995.50;4868705;29;20575;-74
2023/11/17 00:14:36;;;;;;;22.30;13.40;;;;;;;7.37;59.44;94987.72;4858212;29;20029;-72
2023/11/17 00:17:01;;;;;;;27.98;14.32;;;;;;;7.39;59.37;94988.06;4844829;29;20041;-73
2023/11/17 00:19:28;;;;;;;23.48;13.90;;;;;;;7.41;59.27;94983.75;4871380;29;20029;-72
2023/11/17 00:21:53;;;;;;;22.80;13.57;;;;;;;7.42;59.26;94992.72;4854970;29;20056;-73
2023/11/17 00:24:18;;;;;;;24.13;13.60;;;;;;;7.38;59.21;94986.53;4856301;29;20057;-72
2023/11/17 00:26:44;;;;;;;22.80;13.00;;;;;;;7.42;59.53;95000.94;4868909;29;20124;-71
2023/11/17 00:29:10;;;;;;;20.30;12.80;;;;;;;7.43;59.46;95005.22;4870158;29;20033;-72
2023/11/17 00:31:35;;;;;;;23.15;13.63;;;;;;;7.43;59.73;95000.50;4873165;29;20540;-72
2023/11/17 00:34:01;;;;;;;19.88;12.85;;;;;;;7.39;59.73;94988.84;4856420;29;20103;-72
2023/11/17 00:36:26;;;;;;;23.50;14.88;;;;;;;7.40;59.52;94989.66;4850059;29;20041;-72
2023/11/17 00:38:52;;;;;;;28.98;15.68;;;;;;;7.43;59.43;94988.81;4871539;29;20532;-74
2023/11/17 00:41:18;;;;;;;25.33;15.60;;;;;;;7.42;59.42;94988.03;4873559;29;20092;-73
2023/11/17 00:43:44;;;;;;;25.15;15.68;;;;;;;7.43;59.33;94983.31;4856217;29;20476;-72
2023/11/17 00:46:10;;;;;;;23.95;14.18;;;;;;;7.39;59.25;94977.13;4856201;29;20048;-73
2023/11/17 00:48:37;;;;;;;26.90;15.65;;;;;;;7.38;59.46;94979.09;4858190;29;20375;-72
2023/11/17 00:51:03;;;;;;;27.88;16.13;;;;;;;7.33;59.76;94982.28;4870635;29;20124;-72
2023/11/17 00:53:29;;;;;;;24.20;17.50;;;;;;;7.28;59.76;94982.75;4856525;29;20052;-72
2023/11/17 00:55:55;;;;;;;26.08;16.80;;;;;;;7.26;60.01;94987.88;4872094;29;20061;-71
2023/11/17 00:58:21;;;;;;;25.50;17.63;;;;;;;7.26;60.01;94989.84;4828791;29;20033;-72
2023/11/17 01:00:46;;;;;;;28.00;15.77;;;;;;;7.24;60.32;94993.00;4872803;29;20063;-72
2023/11/17 01:03:12;;;;;;;23.55;14.57;;;;;;;7.26;59.88;94984.38;4873291;29;20531;-72
2023/11/17 01:05:37;;;;;;;19.05;13.23;;;;;;;7.28;59.93;94985.50;4856584;29;20026;-72
2023/11/17 01:08:03;;;;;;;20.58;13.70;;;;;;;7.08;60.18;94976.44;4860166;29;20524;-71
2023/11/17 01:10:29;;;;;;;23.52;14.38;;;;;;;7.08;59.97;94962.78;4868786;29;20081;-73
2023/11/17 01:12:54;;;;;;;21.13;13.40;;;;;;;6.99;60.41;94951.56;4852550;29;20519;-71
2023/11/17 01:15:20;;;;;;;18.73;12.38;;;;;;;6.96;60.44;94953.19;4869010;29;20085;-72
2023/11/17 01:17:46;;;;;;;21.05;12.48;;;;;;;6.93;60.57;94946.56;4864627;29;20124;-72
2023/11/17 01:20:12;;;;;;;19.50;12.95;;;;;;;6.89;60.78;94925.97;4856470;29;20044;-73
2023/11/17 01:22:39;;;;;;;23.50;13.48;;;;;;;6.85;60.80;94923.28;4851494;29;20033;-74
2023/11/17 01:25:05;;;;;;;22.48;13.32;;;;;;;6.83;61.16;94925.66;4868658;29;20038;-72
2023/11/17 01:27:30;;;;;;;23.77;13.32;;;;;;;6.78;61.34;94928.09;4865318;29;20033;-72
2023/11/17 01:29:55;;;;;;;20.08;13.27;;;;;;;6.76;61.35;94919.50;4856032;29;20452;-73
2023/11/17 01:32:22;;;;;;;23.25;13.73;;;;;;;6.73;61.37;94918.38;4849166;29;20036;-73
2023/11/17 01:34:48;;;;;;;19.85;12.50;;;;;;;6.77;61.13;94905.47;4867425;29;20500;-72
2023/11/17 01:37:13;;;;;;;22.15;12.48;;;;;;;6.77;61.37;94921.06;4865252;29;20043;-71
2023/11/17 01:39:38;;;;;;;21.17;13.30;;;;;;;6.68;61.46;94918.06;4870731;29;20044;-72
2023/11/17 01:42:04;;;;;;;20.90;12.02;;;;;;;6.75;61.41;94915.22;4870874;29;20056;-72
2023/11/17 01:44:29;;;;;;;18.02;11.95;;;;;;;6.74;61.38;94913.69;4840837;29;20044;-72
2023/11/17 01:46:55;;;;;;;21.30;12.05;;;;;;;6.68;61.44;94916.13;4858695;29;20037;-73
2023/11/17 01:49:22;;;;;;;21.67;12.40;;;;;;;6.71;61.57;94909.03;4842727;29;20057;-73
2023/11/17 01:51:47;;;;;;;22.52;13.02;;;;;;;6.71;61.27;94907.09;4874971;29;20078;-73
2023/11/17 01:54:13;;;;;;;21.80;13.68;;;;;;;6.67;61.28;94900.16;4857347;29;20041;-72
2023/11/17 01:56:40;;;;;;;22.08;13.10;;;;;;;6.69;61.33;94895.81;4866037;29;20155;-72
2023/11/17 01:59:05;;;;;;;25.10;13.32;;;;;;;6.68;61.28;94901.69;4863547;29;20468;-72
2023/11/17 02:01:31;;;;;;;17.35;11.60;;;;;;;6.61;61.39;94892.41;4870235;29;20029;-73
2023/11/17 02:03:58;;;;;;;17.83;12.65;;;;;;;6.63;61.44;94890.03;4870895;29;20476;-72
2023/11/17 02:06:28;;;;;;;17.08;11.75;;;;;;;6.63;61.38;94884.56;4855294;29;20488;-72
2023/11/17 02:09:13;;;;;;;20.08;11.60;;;;;;;6.65;61.26;94884.16;4862861;29;20039;-72
2023/11/17 02:12:10;;;;;;;16.75;11.38;;;;;;;6.61;61.12;94873.28;4847756;29;20120;-71
2023/11/17 02:14:37;;;;;;;16.10;10.75;;;;;;;6.54;61.29;94870.66;4833239;29;20076;-73
2023/11/17 02:17:03;;;;;;;16.63;10.70;;;;;;;6.62;61.06;94874.81;4869468;29;20045;-72
2023/11/17 02:19:33;;;;;;;18.70;11.38;;;;;;;6.52;61.54;94870.28;4839953;29;20037;-73
2023/11/17 02:22:00;;;;;;;19.83;12.32;;;;;;;6.41;61.52;94869.66;4861778;29;20021;-72
2023/11/17 02:24:30;;;;;;;18.73;11.70;;;;;;;6.34;61.76;94865.06;4856197;29;20033;-73
2023/11/17 02:27:26;;;;;;;16.67;11.00;;;;;;;6.41;61.75;94853.28;4866667;29;20060;-73
2023/11/17 02:29:56;;;;;;;18.02;11.38;;;;;;;6.35;62.02;94847.50;4848554;29;20044;-73
2023/11/17 02:32:24;;;;;;;20.20;11.52;;;;;;;6.46;61.70;94850.09;4854350;29;20044;-73
2023/11/17 02:34:53;;;;;;;21.52;12.00;;;;;;;6.44;61.64;94836.09;4836636;29;20029;-73
2023/11/17 02:37:24;;;;;;;20.40;11.52;;;;;;;6.39;61.96;94831.84;4861557;29;20037;-72
2023/11/17 02:39:54;;;;;;;16.67;11.15;;;;;;;6.39;62.06;94826.38;4868073;29;20100;-72
2023/11/17 02:42:24;;;;;;;19.75;11.73;;;;;;;6.33;62.02;94836.22;4839151;29;20044;-72
2023/11/17 02:44:50;;;;;;;16.05;10.88;;;;;;;6.32;61.92;94833.91;4866504;29;20038;-72
2023/11/17 02:47:20;;;;;;;16.30;9.55;;;;;;;6.44;61.53;94808.78;4867470;29;20053;-72
2023/11/17 02:49:53;;;;;;;16.58;10.88;;;;;;;6.29;62.33;94815.63;4857052;29;20037;-72
2023/11/17 02:52:26;;;;;;;19.67;11.52;;;;;;;6.36;61.99;94826.44;4847906;29;20037;-73
2023/11/17 02:54:52;;;;;;;20.90;10.57;;;;;;;6.30;61.92;94798.81;4867406;29;20164;-73
2023/11/17 02:57:24;;;;;;;14.93;9.20;;;;;;;6.25;62.14;94790.31;4843362;29;20084;-73
2023/11/17 02:59:50;;;;;;;15.93;9.90;;;;;;;6.23;62.20;94793.47;4843772;29;20045;-72
2023/11/17 03:02:19;;;;;;;14.80;10.35;;;;;;;6.21;62.37;94781.44;4866723;29;20040;-73
2023/11/17 03:04:45;;;;;;;15.43;10.07;;;;;;;6.20;62.46;94775.19;4853654;29;20066;-72
2023/11/17 03:07:10;;;;;;;15.82;10.35;;;;;;;6.20;62.69;94771.69;4853892;29;20064;-72
2023/11/17 03:09:36;;;;;;;15.57;10.73;;;;;;;6.24;62.64;94775.13;4854612;29;20030;-72
2023/11/17 03:12:02;;;;;;;14.43;10.40;;;;;;;6.20;62.75;94766.25;4851445;29;20073;-72
2023/11/17 03:14:28;;;;;;;22.02;11.60;;;;;;;6.20;62.71;94768.97;4869974;29;20109;-73
2023/11/17 03:16:54;;;;;;;16.95;11.55;;;;;;;6.18;62.91;94774.06;4870773;29;20121;-72
2023/11/17 03:19:20;;;;;;;19.65;12.38;;;;;;;6.15;62.85;94774.88;4870324;29;20037;-73
2023/11/17 03:21:46;;;;;;;18.48;11.57;;;;;;;6.15;62.85;94780.34;4854860;29;20530;-72
2023/11/17 03:24:17;;;;;;;19.38;11.00;;;;;;;6.15;62.92;94780.34;4842247;29;20109;-72
2023/11/17 03:26:47;;;;;;;20.88;11.88;;;;;;;6.17;62.86;94769.78;4863840;29;20047;-72
2023/11/17 03:29:18;;;;;;;15.57;10.63;;;;;;;6.15;62.66;94761.25;4840504;29;20496;-73
2023/11/17 03:31:48;;;;;;;15.80;10.32;;;;;;;6.13;62.76;94759.69;4869284;29;20547;-72
2023/11/17 03:34:15;;;;;;;16.17;10.25;;;;;;;6.12;62.73;94749.94;4863794;29;20037;-73
2023/11/17 03:36:40;;;;;;;18.42;10.55;;;;;;;6.07;63.06;94755.88;4865918;29;20052;-73
2023/11/17 03:39:12;;;;;;;18.98;10.27;;;;;;;6.03;63.40;94740.75;4870531;29;20029;-71
2023/11/17 03:41:38;;;;;;;18.25;11.20;;;;;;;6.09;63.03;94728.94;4857671;29;20041;-72
2023/11/17 03:44:05;;;;;;;16.38;10.65;;;;;;;6.08;63.13;94734.84;4869720;29;20026;-72
2023/11/17 03:46:30;;;;;;;16.08;10.20;;;;;;;6.12;62.83;94724.63;4871369;29;20112;-72
2023/11/17 03:48:56;;;;;;;19.88;11.27;;;;;;;6.16;62.82;94719.09;4873705;29;20044;-72
2023/11/17 03:51:22;;;;;;;14.90;9.75;;;;;;;6.17;62.95;94720.66;4842768;29;20080;-72
2023/11/17 03:53:48;;;;;;;17.33;10.23;;;;;;;6.10;63.01;94727.00;4869468;29;20036;-72
2023/11/17 03:56:13;;;;;;;17.90;10.55;;;;;;;6.04;63.27;94740.31;4848971;29;20045;-71
2023/11/17 03:58:39;;;;;;;16.05;10.95;;;;;;;5.95;63.42;94737.34;4874476;29;20073;-72
2023/11/17 04:01:04;;;;;;;21.02;11.88;;;;;;;5.97;63.59;94751.34;4856764;29;20045;-72
2023/11/17 04:03:30;;;;;;;23.73;12.93;;;;;;;5.97;63.46;94745.91;4856468;29;20044;-72
2023/11/17 04:05:56;;;;;;;21.02;12.43;;;;;;;6.00;63.26;94742.31;4851985;29;20037;-72
2023/11/17 04:08:22;;;;;;;18.50;12.55;;;;;;;5.96;63.19;94738.09;4855047;29;20034;-72
2023/11/17 04:10:47;;;;;;;22.38;12.45;;;;;;;6.02;63.31;94736.44;4856044;29;20234;-72
2023/11/17 04:13:14;;;;;;;21.45;12.88;;;;;;;5.98;63.32;94741.97;4871414;29;20437;-72
2023/11/17 04:15:39;;;;;;;22.35;12.90;;;;;;;5.94;63.25;94743.97;4855783;29;20168;-73
2023/11/17 04:18:05;;;;;;;19.23;11.88;;;;;;;5.90;63.48;94739.72;4870001;29;20063;-72
2023/11/17 04:20:31;;;;;;;17.98;12.43;;;;;;;5.86;63.49;94729.63;4839181;29;20404;-73
2023/11/17 04:22:57;;;;;;;21.00;12.18;;;;;;;5.88;63.54;94721.03;4868808;29;20022;-74
2023/11/17 04:25:22;;;;;;;17.52;12.20;;;;;;;5.80;63.60;94725.06;4870213;29;20037;-73
2023/11/17 04:27:48;;;;;;;18.85;12.95;;;;;;;5.76;63.71;94716.16;4855133;29;20569;-74
2023/11/17 04:30:13;;;;;;;20.35;14.00;;;;;;;5.75;63.76;94723.56;4863590;29;20033;-73
2023/11/17 04:32:39;;;;;;;16.80;11.75;;;;;;;5.77;63.32;94732.09;4862803;29;20030;-73
2023/11/17 04:35:05;;;;;;;17.77;11.80;;;;;;;5.78;63.60;94732.88;4863745;29;20137;-73
2023/11/17 04:37:31;;;;;;;18.23;11.38;;;;;;;5.77;63.62;94726.63;4873661;29;20124;-73
2023/11/17 04:39:56;;;;;;;19.58;12.00;;;;;;;5.74;63.63;94740.34;4856436;29;20181;-73
2023/11/17 04:42:22;;;;;;;19.02;11.73;;;;;;;5.70;63.63;94737.66;4842818;29;20063;-73
2023/11/17 04:44:48;;;;;;;15.25;11.05;;;;;;;5.69;63.98;94729.88;4840681;29;20083;-73
2023/11/17 04:47:14;;;;;;;17.33;10.93;;;;;;;5.62;63.83;94730.75;4872635;29;20040;-73
2023/11/17 04:49:40;;;;;;;16.70;11.55;;;;;;;5.70;64.18;94728.69;4856589;29;20037;-73
2023/11/17 04:52:05;;;;;;;15.63;11.27;;;;;;;5.69;64.23;94741.56;4829784;29;20032;-72
2023/11/17 04:54:31;;;;;;;16.65;12.13;;;;;;;5.70;63.91;94720.53;4869530;29;20034;-73
2023/11/17 04:56:56;;;;;;;15.55;10.77;;;;;;;5.69;63.86;94722.47;4873176;29;20436;-72
2023/11/17 04:59:22;;;;;;;20.58;12.55;;;;;;;5.71;63.99;94722.81;4868984;29;20041;-73
2023/11/17 05:01:47;;;;;;;20.42;13.13;;;;;;;5.70;63.97;94729.47;4868253;29;20037;-73
2023/11/17 05:04:13;;;;;;;21.08;12.20;;;;;;;5.74;64.14;94726.72;4869511;29;20044;-74
2023/11/17 05:06:39;;;;;;;19.08;12.43;;;;;;;5.75;64.20;94729.00;4868406;29;20042;-73
2023/11/17 05:09:12;;;;;;;21.02;11.68;;;;;;;5.74;64.28;94732.94;4863455;29;20032;-71
2023/11/17 05:11:41;;;;;;;18.65;12.50;;;;;;;5.69;64.29;94706.13;4873439;29;20025;-71
2023/11/17 05:14:07;;;;;;;20.92;12.10;;;;;;;5.71;64.28;94719.31;4855974;29;20047;-72
2023/11/17 05:16:37;;;;;;;22.00;12.45;;;;;;;5.73;64.25;94715.00;4855046;29;20436;-72
2023/11/17 05:19:06;;;;;;;16.98;11.52;;;;;;;5.72;64.10;94704.50;4842120;29;20029;-72
2023/11/17 05:21:32;;;;;;;21.33;11.93;;;;;;;5.73;64.50;94704.09;4855271;29;20038;-72
2023/11/17 05:23:59;;;;;;;20.08;13.20;;;;;;;5.77;64.41;94693.13;4854747;29;20042;-72
2023/11/17 05:26:24;;;;;;;19.00;12.20;;;;;;;5.82;64.44;94677.09;4854933;29;20033;-71
2023/11/17 05:28:50;;;;;;;18.25;12.05;;;;;;;5.91;64.37;94679.34;4856126;29;20041;-72
2023/11/17 05:31:17;;;;;;;17.88;11.48;;;;;;;5.92;64.41;94683.59;4871702;29;20025;-74
2023/11/17 05:33:42;;;;;;;18.17;12.20;;;;;;;5.94;64.22;94680.44;4855850;29;20033;-73
2023/11/17 05:36:08;;;;;;;17.13;11.82;;;;;;;5.93;63.75;94679.69;4867710;29;20437;-72
2023/11/17 05:38:33;;;;;;;20.17;11.55;;;;;;;5.95;63.14;94669.13;4849603;29;20073;-73
2023/11/17 05:41:00;;;;;;;17.80;11.55;;;;;;;6.05;62.55;94670.16;4872412;29;20556;-71
2023/11/17 05:43:25;;;;;;;15.63;10.25;;;;;;;6.02;62.45;94685.41;4857183;29;20034;-72
2023/11/17 05:45:50;;;;;;;16.98;10.15;;;;;;;6.00;62.94;94676.06;4854199;29;20026;-73
2023/11/17 05:48:17;;;;;;;17.75;10.95;;;;;;;6.02;62.65;94677.22;4854250;29;20428;-72
2023/11/17 05:50:42;;;;;;;14.45;10.20;;;;;;;6.07;62.69;94690.38;4836944;29;20113;-72
2023/11/17 05:53:07;;;;;;;17.15;10.80;;;;;;;6.08;62.65;94683.75;4866250;29;20120;-71
2023/11/17 05:55:33;;;;;;;18.42;10.60;;;;;;;6.15;62.68;94676.63;4869534;29;20395;-71
2023/11/17 05:57:58;;;;;;;17.55;9.57;;;;;;;6.14;62.68;94664.94;4857739;29;20029;-72
2023/11/17 06:00:27;;;;;;;17.27;10.38;;;;;;;6.22;62.64;94666.34;4837989;29;20025;-71
2023/11/17 06:02:53;;;;;;;15.70;10.10;;;;;;;6.21;62.51;94653.13;4852277;29;20507;-71
2023/11/17 06:05:22;;;;;;;20.40;11.13;;;;;;;6.26;62.80;94666.31;4868064;29;20038;-71
2023/11/17 06:07:47;;;;;;;17.42;10.38;;;;;;;6.27;62.50;94665.13;4862648;29;20493;-71
2023/11/17 06:10:13;;;;;;;16.33;9.32;;;;;;;6.29;62.61;94679.88;4837845;29;20042;-71
2023/11/17 06:12:38;;;;;;;18.30;10.98;;;;;;;6.33;62.51;94679.84;4868031;29;20041;-73
2023/11/17 06:15:05;;;;;;;16.67;9.65;;;;;;;6.37;62.62;94686.03;4867804;29;20033;-72
2023/11/17 06:17:31;;;;;;;19.85;10.02;;;;;;;6.44;62.24;94687.84;4852351;29;20918;-71
2023/11/17 06:20:00;;;;;;;18.38;10.48;;;;;;;6.47;62.06;94685.03;4841183;29;20105;-72
2023/11/17 06:22:27;;;;;;;15.75;9.98;;;;;;;6.58;61.69;94695.78;4852336;29;20041;-72
2023/11/17 06:24:53;;;;;;;21.73;11.65;;;;;;;6.66;61.76;94686.31;4868826;29;20105;-72
2023/11/17 06:27:19;;;;;;;18.77;11.20;;;;;;;6.68;61.72;94683.91;4840188;29;20492;-72
2023/11/17 06:29:45;;;;;;;15.43;11.18;;;;;;;6.71;61.60;94677.63;4853541;29;20481;-72
2023/11/17 06:32:11;;;;;;;18.35;11.70;;;;;;;6.80;61.68;94677.84;4848672;29;20044;-72
2023/11/17 06:34:37;;;;;;;22.27;13.38;;;;;;;6.93;61.61;94664.31;4839156;29;20037;-73
2023/11/17 06:37:02;;;;;;;22.55;13.35;;;;;;;6.93;62.04;94656.13;4852944;29;20094;-71
2023/11/17 06:39:29;;;;;;;18.85;13.57;;;;;;;7.01;61.71;94656.78;4869819;29;20037;-71
2023/11/17 06:41:55;;;;;;;24.50;13.75;;;;;;;7.08;61.97;94673.03;4838281;29;20049;-71
2023/11/17 06:44:22;;;;;;;24.70;13.18;;;;;;;7.13;61.14;94681.50;4873720;29;20080;-72
2023/11/17 06:46:48;;;;;;;18.02;13.38;;;;;;;7.16;60.85;94677.91;4844284;29;20060;-71
2023/11/17 06:49:15;;;;;;;21.75;13.35;;;;;;;7.22;60.69;94696.56;4874107;29;20040;-73
2023/11/17 06:51:44;;;;;;;19.40;11.63;;;;;;;7.27;60.20;94674.22;4844683;29;20034;-71
2023/11/17 06:54:13;;;;;;;19.92;12.00;;;;;;;7.32;60.69;94684.66;4860218;29;20117;-72
2023/11/17 06:56:46;;;;;;;15.63;11.65;;;;;;;7.41;60.35;94663.00;4858289;29;20140;-72
2023/11/17 06:59:12;;;;;;;19.38;13.30;;;;;;;7.53;60.08;94667.03;4872711;29;20036;-72
2023/11/17 07:01:39;;;;;;;18.42;12.63;;;;;;;7.45;60.29;94669.94;4866017;29;20570;-72
2023/11/17 07:04:06;;;;;;;19.35;11.98;;;;;;;7.49;59.81;94680.00;4873517;29;20413;-72
2023/11/17 07:06:33;;;;;;;15.32;10.23;;;;;;;7.46;59.92;94676.16;4873420;29;20037;-71
2023/11/17 07:08:59;;;;;;;19.17;11.63;;;;;;;7.54;60.62;94702.16;4843372;29;20036;-71
2023/11/17 07:11:25;;;;;;;19.35;11.88;;;;;;;7.59;60.79;94696.22;4842964;29;20156;-72
2023/11/17 07:13:52;;;;;;;19.55;12.32;;;;;;;7.53;61.14;94684.22;4867538;29;20461;-70
2023/11/17 07:16:20;;;;;;;17.38;12.25;;;;;;;7.52;61.56;94682.69;4860924;29;20033;-71
2023/11/17 07:18:46;;;;;;;15.98;11.00;;;;;;;7.47;61.62;94680.44;4858894;29;20122;-72
2023/11/17 07:21:13;;;;;;;14.52;9.75;;;;;;;7.45;61.06;94675.41;4842471;29;20030;-72
2023/11/17 07:23:43;;;;;;;14.93;9.48;;;;;;;7.43;60.99;94652.38;4859063;29;20033;-71
2023/11/17 07:26:18;;;;;;;17.52;9.68;;;;;;;7.46;60.67;94637.88;4859595;29;20033;-71
2023/11/17 07:28:50;;;;;;;14.20;9.48;;;;;;;7.64;60.36;94645.69;4843272;29;20056;-70
2023/11/17 07:31:18;;;;;;;13.40;8.98;;;;;;;7.96;59.99;94642.97;4864213;29;20025;-71
2023/11/17 07:33:44;;;;;;;12.55;9.10;;;;;;;7.90;60.53;94632.97;4845123;29;20460;-71
2023/11/17 07:36:10;;;;;;;13.13;9.27;;;;;;;7.99;60.29;94614.78;4861513;29;20619;-71
2023/11/17 07:38:37;;;;;;;9.88;7.68;;;;;;;8.18;59.11;94593.19;4851909;29;20061;-71
2023/11/17 07:41:03;;;;;;;10.38;7.90;;;;;;;8.32;58.35;94601.06;4870055;29;20030;-72
2023/11/17 07:43:28;;;;;;;15.88;8.57;;;;;;;9.25;56.84;94613.06;4875051;29;20097;-72
2023/11/17 07:45:54;;;;;;;13.43;8.82;;;;;;;10.02;55.24;94610.34;4876370;29;20029;-74
2023/11/17 07:48:19;;;;;;;12.60;8.20;;;;;;;10.05;54.40;94625.94;4866704;29;20104;-73
2023/11/17 07:50:45;;;;;;;13.40;8.75;;;;;;;10.05;54.53;94625.94;4875089;29;20039;-72
2023/11/17 07:53:12;;;;;;;10.43;7.38;;;;;;;10.00;54.29;94613.53;4846207;29;20548;-72
2023/11/17 07:55:37;;;;;;;10.23;7.22;;;;;;;9.99;54.33;94624.97;4856234;29;20045;-72
2023/11/17 07:58:03;;;;;;;10.52;7.63;;;;;;;10.00;54.27;94619.03;4841291;29;20060;-72
2023/11/17 08:00:28;;;;;;;11.23;7.65;;;;;;;9.90;54.38;94600.13;4871258;29;20033;-72
2023/11/17 08:02:54;;;;;;;10.70;6.82;;;;;;;9.95;54.19;94610.56;4857993;29;20053;-73
2023/11/17 08:05:20;;;;;;;11.35;7.15;;;;;;;9.89;54.07;94621.34;4855129;29;20061;-72
2023/11/17 08:07:46;;;;;;;12.57;7.78;;;;;;;9.92;53.62;94625.16;4873525;29;20079;-71
2023/11/17 08:10:13;;;;;;;11.73;8.07;;;;;;;9.86;53.69;94600.25;4858697;29;20113;-72
2023/11/17 08:12:39;;;;;;;12.95;8.40;;;;;;;9.77;53.90;94598.16;4873882;29;20108;-72
2023/11/17 08:15:06;;;;;;;9.88;7.70;;;;;;;9.66;54.12;94605.97;4850122;29;20033;-72
2023/11/17 08:17:31;;;;;;;10.18;8.10;;;;;;;9.58;54.16;94615.63;4856666;29;20068;-76
2023/11/17 08:20:00;;;;;;;11.90;8.88;;;;;;;9.60;54.33;94612.44;4873212;29;20451;-78
2023/11/17 08:22:29;;;;;;;11.38;8.38;;;;;;;9.54;55.02;94618.47;4842160;29;20495;-73
2023/11/17 08:24:56;;;;;;;9.70;7.75;;;;;;;9.47;54.20;94606.94;4873717;29;20474;-73
2023/11/17 08:27:21;;;;;;;8.93;6.53;;;;;;;9.37;54.47;94591.56;4858165;29;20060;-72
2023/11/17 08:29:47;;;;;;;11.02;7.25;;;;;;;9.36;54.79;94579.81;4873414;29;20112;-74
2023/11/17 08:32:12;;;;;;;11.13;7.63;;;;;;;9.29;55.60;94586.28;4854890;29;20025;-74
2023/11/17 08:34:38;;;;;;;11.00;8.27;;;;;;;9.29;56.09;94572.59;4857033;29;20041;-78
2023/11/17 08:37:05;;;;;;;13.05;8.73;;;;;;;9.34;56.33;94581.47;4860133;29;20048;-78
2023/11/17 08:39:31;;;;;;;14.98;10.27;;;;;;;9.28;56.79;94564.78;4852680;29;20055;-84
2023/11/17 08:41:56;;;;;;;14.30;11.02;;;;;;;9.36;56.96;94557.13;4856980;29;20407;-72
2023/11/17 08:44:27;;;;;;;14.98;12.05;;;;;;;9.43;56.06;94535.72;4841581;29;20021;-74
2023/11/17 08:46:52;;;;;;;17.98;14.13;;;;;;;9.82;55.96;94542.72;4841755;29;20034;-74
2023/11/17 08:49:18;;;;;;;19.75;12.38;;;;;;;10.25;55.34;94544.06;4867172;29;20030;-78
2023/11/17 08:51:46;;;;;;;16.70;10.98;;;;;;;10.21;54.43;94553.63;4861928;29;20038;-75
2023/11/17 08:54:13;;;;;;;16.95;11.98;;;;;;;10.14;54.83;94562.09;4869704;29;20032;-77
2023/11/17 08:56:38;;;;;;;19.45;12.07;;;;;;;10.03;54.84;94540.47;4838051;29;20810;-76
2023/11/17 08:59:05;;;;;;;13.73;10.30;;;;;;;10.05;54.41;94535.31;4868735;29;20038;-75
2023/11/17 09:01:33;;;;;;;13.82;9.85;;;;;;;10.02;54.86;94511.47;4869145;29;20094;-77
2023/11/17 09:03:58;;;;;;;16.45;11.18;;;;;;;10.08;55.57;94504.22;4868773;29;20037;-80
2023/11/17 09:06:24;;;;;;;20.92;13.60;;;;;;;10.49;54.93;94514.19;4869587;29;20421;-82
2023/11/17 09:08:50;;;;;;;18.65;13.32;;;;;;;10.47;55.17;94505.66;4868562;29;20034;-74
2023/11/17 09:11:16;;;;;;;15.73;11.45;;;;;;;10.49;54.01;94510.69;4869525;29;20037;-78
2023/11/17 09:13:42;;;;;;;18.35;12.25;;;;;;;10.57;54.39;94528.47;4837813;29;20056;-83
2023/11/17 09:16:09;;;;;;;17.75;12.38;;;;;;;10.66;54.03;94523.03;4837372;29;20044;-77
2023/11/17 09:18:35;;;;;;;19.92;11.43;;;;;;;10.63;53.88;94491.72;4843405;29;20037;-75
2023/11/17 09:21:05;;;;;;;15.95;11.63;;;;;;;10.61;54.13;94512.63;4844215;29;20044;-74
2023/11/17 09:23:34;;;;;;;20.17;12.70;;;;;;;10.60;54.49;94513.81;4871829;29;20105;-84
2023/11/17 09:26:03;;;;;;;18.08;11.95;;;;;;;10.60;54.90;94500.84;4856250;29;20025;-73
2023/11/17 09:28:29;;;;;;;20.60;13.30;;;;;;;10.58;54.49;94494.28;4856855;29;20041;-75
2023/11/17 09:30:56;;;;;;;18.42;12.55;;;;;;;10.57;55.20;94482.50;4870141;29;20025;-73
2023/11/17 09:33:22;;;;;;;16.35;11.18;;;;;;;10.67;55.27;94483.34;4849694;29;20045;-74
2023/11/17 09:35:48;;;;;;;20.23;12.15;;;;;;;10.69;55.60;94488.41;4852381;29;20085;-80
2023/11/17 09:38:16;;;;;;;14.25;10.18;;;;;;;10.58;56.02;94495.03;4837982;29;20140;-79
2023/11/17 09:40:42;;;;;;;16.00;10.30;;;;;;;10.57;56.07;94490.00;4822709;29;20030;-77
2023/11/17 09:43:10;;;;;;;15.07;11.00;;;;;;;10.49;56.69;94492.22;4839809;29;20056;-76
2023/11/17 09:45:36;;;;;;;17.13;10.82;;;;;;;10.49;56.67;94499.69;4870250;29;20063;-74
2023/11/17 09:48:03;;;;;;;20.23;13.02;;;;;;;10.48;57.20;94503.66;4854229;29;20036;-74
2023/11/17 09:50:30;;;;;;;19.55;11.13;;;;;;;10.47;56.88;94494.66;4869867;29;20053;-76
2023/11/17 09:52:57;;;;;;;13.15;9.10;;;;;;;10.43;56.21;94502.25;4868070;29;20647;-83
2023/11/17 09:55:27;;;;;;;12.20;8.73;;;;;;;10.38;56.86;94486.34;4822464;29;20144;-79
2023/11/17 09:57:54;;;;;;;14.05;9.23;;;;;;;10.36;56.83;94480.53;4867970;29;20125;-75
2023/11/17 10:00:22;;;;;;;15.77;11.20;;;;;;;10.30;57.56;94461.09;4829535;29;20040;-75
2023/11/17 10:02:55;;;;;;;16.25;10.27;;;;;;;10.35;58.03;94479.75;4847665;29;20034;-75
2023/11/17 10:05:22;;;;;;;13.23;8.13;;;;;;;10.34;57.42;94471.97;4867560;29;20094;-75
2023/11/17 10:07:49;;;;;;;10.18;7.88;;;;;;;10.32;57.48;94475.16;4852637;29;20756;-76
2023/11/17 10:10:18;;;;;;;15.25;9.50;;;;;;;10.36;57.77;94464.81;4852287;29;20028;-75
2023/11/17 10:12:48;;;;;;;15.93;9.55;;;;;;;10.29;58.36;94473.31;4856210;29;20036;-76
2023/11/17 10:15:16;;;;;;;14.75;9.95;;;;;;;10.28;58.53;94482.00;4840493;29;20132;-75
2023/11/17 10:17:42;;;;;;;12.80;8.45;;;;;;;10.25;58.26;94474.63;4851509;29;20125;-74
2023/11/17 10:20:17;;;;;;;14.60;8.45;;;;;;;10.24;58.50;94481.34;4868317;29;20037;-76
2023/11/17 10:22:47;;;;;;;12.73;8.50;;;;;;;10.33;58.82;94465.72;4867211;29;20036;-76
2023/11/17 10:25:16;;;;;;;13.68;8.27;;;;;;;10.36;58.69;94459.31;4868171;29;20029;-75
2023/11/17 10:27:44;;;;;;;11.45;7.90;;;;;;;10.44;58.85;94448.84;4855280;29;20030;-75
2023/11/17 10:30:11;;;;;;;13.23;8.32;;;;;;;10.61;59.02;94430.19;4834359;29;20034;-76
2023/11/17 10:32:39;;;;;;;10.13;6.10;;;;;;;10.70;58.09;94402.72;4834056;29;20083;-76
2023/11/17 10:35:26;;;;;;;10.50;6.63;;;;;;;10.97;56.92;94421.34;4848993;29;20025;-77
2023/11/17 10:37:54;;;;;;;10.93;7.15;;;;;;;10.99;56.81;94407.91;4856634;29;20081;-75
2023/11/17 10:40:25;;;;;;;10.20;6.65;;;;;;;11.12;56.72;94396.78;4853479;29;20100;-75
2023/11/17 10:43:11;;;;;;;11.57;6.07;;;;;;;11.19;56.60;94407.53;4844402;29;20025;-75
2023/11/17 10:45:38;;;;;;;9.85;6.13;;;;;;;11.19;56.05;94395.75;4847607;29;20029;-76
2023/11/17 10:48:08;;;;;;;8.77;5.55;;;;;;;11.19;55.55;94385.53;4841848;29;20033;-76
2023/11/17 10:50:37;;;;;;;11.13;6.97;;;;;;;11.29;55.84;94370.53;4852326;29;20036;-76
2023/11/17 10:53:20;;;;;;;12.63;7.35;;;;;;;11.66;55.79;94368.63;4863620;29;20068;-76
2023/11/17 10:55:53;;;;;;;8.98;5.68;;;;;;;11.89;55.09;94355.53;4853724;29;20249;-76
2023/11/17 10:58:19;;;;;;;7.43;5.63;;;;;;;11.90;55.11;94362.56;4855280;29;20029;-76
2023/11/17 11:00:46;;;;;;;7.20;5.30;;;;;;;12.04;53.70;94347.38;4855520;29;20499;-76
2023/11/17 11:03:13;;;;;;;8.02;5.82;;;;;;;12.91;51.45;94332.78;4855637;29;20108;-76
2023/11/17 11:05:42;;;;;;;10.50;6.40;;;;;;;14.72;48.59;94352.47;4854573;29;20112;-76
2023/11/17 11:08:13;;;;;;;9.57;5.80;;;;;;;13.92;49.82;94328.66;4856067;29;20025;-77
2023/11/17 11:10:57;;;;;;;7.20;5.80;;;;;;;14.04;48.36;94327.63;4854658;29;20510;-77
2023/11/17 11:13:29;;;;;;;7.93;5.78;;;;;;;14.83;46.66;94315.94;4855355;29;20033;-75
2023/11/17 11:16:22;;;;;;;9.55;6.45;;;;;;;14.64;48.19;94303.56;4855509;29;20121;-76
2023/11/17 11:18:48;;;;;;;10.40;7.15;;;;;;;14.57;48.15;94304.72;4870326;29;20045;-77
2023/11/17 11:21:18;;;;;;;12.07;7.22;;;;;;;14.56;47.90;94305.94;4872651;29;20457;-77
2023/11/17 11:23:45;;;;;;;13.38;8.00;;;;;;;14.35;47.50;94305.09;4854953;29;20025;-77
2023/11/17 11:26:11;;;;;;;11.40;7.10;;;;;;;14.21;47.77;94301.06;4855555;29;20029;-76